KCIU/CIU METAR and TAF weather

Enter ICAO airport designator
Station Type Date Time Source
KCIU METAR 2019/04/21 21:56 UTC NOAA

KCIU 212156Z AUTO 11003KT 10SM OVC095 14/M01 A3004 RMK AO2 SLP202 T01391006


Station Type Date Time Source
KCIU Decoded METAR 2019/04/21 21:56 UTC NOAA

Sault Ste Marie, Chippewa County International Airport, MI, United States (KCIU) 46-15N 084-28W
Apr 21, 2019 - 05:56 PM EDT / 2019.04.21 2156 UTC
Wind: from the ESE (110 degrees) at 3 MPH (3 KT):0
Visibility: 10 mile(s):0
Sky conditions: overcast
Temperature: 57.0 F (13.9 C)
Dew Point: 30.9 F (-0.6 C)
Relative Humidity: 36%
Pressure (altimeter): 30.04 in. Hg (1017 hPa)
ob: KCIU 212156Z AUTO 11003KT 10SM OVC095 14/M01 A3004 RMK AO2 SLP202 T01391006
cycle: 22

Station Type Date Time Source
KCIU TAF UTC NOAA

Error!

Example: see airport list